createdAt,value
2024-01-20T00:00:14.458Z,4.72
2024-01-20T00:02:41.252Z,5.10
2024-01-20T00:05:08.497Z,5.03
2024-01-20T00:07:35.508Z,4.82
2024-01-20T00:10:02.458Z,5.07
2024-01-20T00:12:31.547Z,5.05
2024-01-20T00:14:58.145Z,5.27
2024-01-20T00:17:27.436Z,5.35
2024-01-20T00:19:56.052Z,5.38
2024-01-20T00:22:23.813Z,5.95
2024-01-20T00:24:50.816Z,5.68
2024-01-20T00:27:17.839Z,5.10
2024-01-20T00:29:45.401Z,5.20
2024-01-20T00:32:12.714Z,5.95
2024-01-20T00:34:51.299Z,5.28
2024-01-20T00:37:25.768Z,5.28
2024-01-20T00:39:52.260Z,6.33
2024-01-20T00:42:18.792Z,5.78
2024-01-20T00:44:45.354Z,5.93
2024-01-20T00:47:12.111Z,5.93
2024-01-20T00:49:38.812Z,5.97
2024-01-20T00:52:05.788Z,6.00
2024-01-20T00:54:32.355Z,5.90
2024-01-20T00:56:58.822Z,5.90
2024-01-20T00:59:25.283Z,6.38
2024-01-20T01:01:51.996Z,5.70
2024-01-20T01:04:18.537Z,6.17
2024-01-20T01:06:45.132Z,6.15
2024-01-20T01:09:11.676Z,5.43
2024-01-20T01:11:38.246Z,6.00
2024-01-20T01:14:04.776Z,5.63
2024-01-20T01:16:31.396Z,6.97
2024-01-20T01:18:57.998Z,5.20
2024-01-20T01:21:24.622Z,6.28
2024-01-20T01:23:51.148Z,6.25
2024-01-20T01:26:18.528Z,6.53
2024-01-20T01:28:45.193Z,6.20
2024-01-20T01:31:11.754Z,6.25
2024-01-20T01:33:39.157Z,6.32
2024-01-20T01:36:06.263Z,5.65
2024-01-20T01:38:32.818Z,6.00
2024-01-20T01:40:59.537Z,5.80
2024-01-20T01:43:26.638Z,5.95
2024-01-20T01:45:53.393Z,6.38
2024-01-20T01:48:20.424Z,6.40
2024-01-20T01:50:47.161Z,6.97
2024-01-20T01:53:14.956Z,6.77
2024-01-20T01:55:41.982Z,6.03
2024-01-20T01:58:08.585Z,5.85
2024-01-20T02:00:35.394Z,6.75
2024-01-20T02:03:02.891Z,5.78
2024-01-20T02:05:29.628Z,6.20
2024-01-20T02:07:58.834Z,6.55
2024-01-20T02:10:25.469Z,6.88
2024-01-20T02:12:52.355Z,8.20
2024-01-20T02:15:19.164Z,6.57
2024-01-20T02:17:56.246Z,6.90
2024-01-20T02:20:24.273Z,6.75
2024-01-20T02:22:50.868Z,5.80
2024-01-20T02:25:17.421Z,5.95
2024-01-20T02:27:43.886Z,6.30
2024-01-20T02:30:10.778Z,6.30
2024-01-20T02:32:37.416Z,7.22
2024-01-20T02:35:04.797Z,6.28
2024-01-20T02:37:31.416Z,6.20
2024-01-20T02:39:58.704Z,6.65
2024-01-20T02:42:25.833Z,6.43
2024-01-20T02:44:52.492Z,6.28
2024-01-20T02:47:19.607Z,6.07
2024-01-20T02:49:46.325Z,7.43
2024-01-20T02:52:13.028Z,6.65
2024-01-20T02:54:39.558Z,6.93
2024-01-20T02:57:06.470Z,6.47
2024-01-20T02:59:32.974Z,7.22
2024-01-20T03:02:00.537Z,7.10
2024-01-20T03:04:27.093Z,7.30
2024-01-20T03:06:53.608Z,9.43
2024-01-20T03:09:20.312Z,7.00
2024-01-20T03:11:46.877Z,6.28
2024-01-20T03:14:13.476Z,5.80
2024-01-20T03:16:40.489Z,7.28
2024-01-20T03:19:07.682Z,6.77
2024-01-20T03:21:35.325Z,5.78
2024-01-20T03:24:02.195Z,6.13
2024-01-20T03:26:28.965Z,6.93
2024-01-20T03:28:55.618Z,6.18
2024-01-20T03:31:22.213Z,7.33
2024-01-20T03:33:48.822Z,6.53
2024-01-20T03:36:15.461Z,6.68
2024-01-20T03:38:42.003Z,6.97
2024-01-20T03:41:08.581Z,6.65
2024-01-20T03:43:35.083Z,6.87
2024-01-20T03:46:01.733Z,7.20
2024-01-20T03:48:28.569Z,6.60
2024-01-20T03:50:55.282Z,7.07
2024-01-20T03:53:21.756Z,5.90
2024-01-20T03:55:48.248Z,6.13
2024-01-20T03:58:14.851Z,6.47
2024-01-20T04:00:41.393Z,6.25
2024-01-20T04:03:07.993Z,6.80
2024-01-20T04:05:34.498Z,6.25
2024-01-20T04:08:00.943Z,6.17
2024-01-20T04:10:27.460Z,7.30
2024-01-20T04:12:54.049Z,6.60
2024-01-20T04:15:20.607Z,5.40
2024-01-20T04:17:47.258Z,5.72
2024-01-20T04:20:13.924Z,6.90
2024-01-20T04:22:40.513Z,6.07
2024-01-20T04:25:07.707Z,5.38
2024-01-20T04:27:41.222Z,6.00
2024-01-20T04:30:09.646Z,6.65
2024-01-20T04:32:36.309Z,5.83
2024-01-20T04:35:04.364Z,6.55
2024-01-20T04:37:31.008Z,7.55
2024-01-20T04:39:57.550Z,6.45
2024-01-20T04:42:24.059Z,6.50
2024-01-20T04:44:50.596Z,6.87
2024-01-20T04:47:17.104Z,6.03
2024-01-20T04:49:43.719Z,6.60
2024-01-20T04:52:10.267Z,7.10
2024-01-20T04:54:36.818Z,6.53
2024-01-20T04:57:03.491Z,6.47
2024-01-20T04:59:30.013Z,6.38
2024-01-20T05:01:56.515Z,6.55
2024-01-20T05:04:23.056Z,6.13
2024-01-20T05:06:49.969Z,6.40
2024-01-20T05:09:16.654Z,5.87
2024-01-20T05:11:43.232Z,6.95
2024-01-20T05:14:10.238Z,5.53
2024-01-20T05:16:36.760Z,5.85
2024-01-20T05:19:03.681Z,6.43
2024-01-20T05:21:30.464Z,6.43
2024-01-20T05:23:58.420Z,5.97
2024-01-20T05:26:25.165Z,5.90
2024-01-20T05:28:51.876Z,6.00
2024-01-20T05:31:18.638Z,6.15
2024-01-20T05:33:45.460Z,5.90
2024-01-20T05:36:15.555Z,6.47
2024-01-20T05:38:42.189Z,5.82
2024-01-20T05:41:10.128Z,6.45
2024-01-20T05:43:37.540Z,5.38
2024-01-20T05:46:08.134Z,5.83
2024-01-20T05:48:36.432Z,5.93
2024-01-20T05:51:03.570Z,5.65
2024-01-20T05:53:30.538Z,5.65
2024-01-20T05:55:57.055Z,6.13
2024-01-20T05:58:23.549Z,5.67
2024-01-20T06:00:50.666Z,6.25
2024-01-20T06:03:17.267Z,4.72
2024-01-20T06:05:43.889Z,5.90
2024-01-20T06:08:10.494Z,5.80
2024-01-20T06:10:37.049Z,5.50
2024-01-20T06:13:03.741Z,5.82
2024-01-20T06:15:30.268Z,5.97
2024-01-20T06:17:56.848Z,5.47
2024-01-20T06:20:23.440Z,4.93
2024-01-20T06:22:50.021Z,5.57
2024-01-20T06:25:16.520Z,5.43
2024-01-20T06:27:43.360Z,5.47
2024-01-20T06:30:10.424Z,5.07
2024-01-20T06:32:37.059Z,5.30
2024-01-20T06:35:04.063Z,5.93
2024-01-20T06:37:30.585Z,6.20
2024-01-20T06:39:57.105Z,6.20
2024-01-20T06:42:23.765Z,5.13
2024-01-20T06:44:50.330Z,5.10
2024-01-20T06:47:16.873Z,3.90
2024-01-20T06:49:43.517Z,5.50
2024-01-20T06:52:10.909Z,5.05
2024-01-20T06:54:39.361Z,5.00
2024-01-20T06:57:05.893Z,4.80
2024-01-20T06:59:32.469Z,5.13
2024-01-20T07:01:58.955Z,5.60
2024-01-20T07:04:25.710Z,4.53
2024-01-20T07:06:52.301Z,4.60
2024-01-20T07:09:18.937Z,5.18
2024-01-20T07:11:45.439Z,5.50
2024-01-20T07:14:11.952Z,5.32
2024-01-20T07:16:38.501Z,4.78
2024-01-20T07:19:05.195Z,4.60
2024-01-20T07:21:31.869Z,4.15
2024-01-20T07:23:58.463Z,5.10
2024-01-20T07:26:25.004Z,4.97
2024-01-20T07:28:51.542Z,5.07
2024-01-20T07:31:18.086Z,5.15
2024-01-20T07:33:45.078Z,4.88
2024-01-20T07:36:12.223Z,5.20
2024-01-20T07:38:38.790Z,5.00
2024-01-20T07:41:05.449Z,4.57
2024-01-20T07:43:31.964Z,4.82
2024-01-20T07:45:58.477Z,4.60
2024-01-20T07:48:27.067Z,5.50
2024-01-20T07:50:54.402Z,5.60
2024-01-20T07:53:21.035Z,4.88
2024-01-20T07:55:47.566Z,6.20
2024-01-20T07:58:14.065Z,4.68
2024-01-20T08:00:40.799Z,5.07
2024-01-20T08:03:07.361Z,6.03
2024-01-20T08:05:35.668Z,4.47
2024-01-20T08:08:02.620Z,4.90
2024-01-20T08:10:29.135Z,5.35
2024-01-20T08:12:56.635Z,5.73
2024-01-20T08:15:24.574Z,5.40
2024-01-20T08:17:51.257Z,9.10
2024-01-20T08:20:17.824Z,5.35
2024-01-20T08:22:44.339Z,6.78
2024-01-20T08:25:10.973Z,8.97
2024-01-20T08:27:37.626Z,5.20
2024-01-20T08:30:04.692Z,4.68
2024-01-20T08:32:31.405Z,5.70
2024-01-20T08:34:58.091Z,5.65
2024-01-20T08:37:24.568Z,5.70
2024-01-20T08:39:51.062Z,5.47
2024-01-20T08:42:17.587Z,5.15
2024-01-20T08:44:44.384Z,5.57
2024-01-20T08:47:10.885Z,5.00
2024-01-20T08:49:37.393Z,5.47
2024-01-20T08:52:04.153Z,4.93
2024-01-20T08:54:30.678Z,5.68
2024-01-20T08:56:57.212Z,5.05
2024-01-20T08:59:23.810Z,4.97
2024-01-20T09:01:50.338Z,5.93
2024-01-20T09:04:16.823Z,5.55
2024-01-20T09:06:43.456Z,8.90
2024-01-20T09:09:10.098Z,5.10
2024-01-20T09:11:36.675Z,4.57
2024-01-20T09:14:03.725Z,5.67
2024-01-20T09:16:30.437Z,5.25
2024-01-20T09:18:57.157Z,4.68
2024-01-20T09:21:24.029Z,5.35
2024-01-20T09:23:51.934Z,4.75
2024-01-20T09:26:18.500Z,6.27
2024-01-20T09:28:45.113Z,6.53
2024-01-20T09:31:11.628Z,5.40
2024-01-20T09:33:38.372Z,4.97
2024-01-20T09:36:05.387Z,5.28
2024-01-20T09:38:31.947Z,5.13
2024-01-20T09:40:59.437Z,5.57
2024-01-20T09:43:30.851Z,4.88
2024-01-20T09:45:58.954Z,5.28
2024-01-20T09:48:25.938Z,5.15
2024-01-20T09:50:52.508Z,4.47
2024-01-20T09:53:19.221Z,4.45
2024-01-20T09:55:47.055Z,4.40
2024-01-20T09:58:15.255Z,7.00
2024-01-20T10:00:42.338Z,4.40
2024-01-20T10:03:10.738Z,4.23
2024-01-20T10:05:38.477Z,4.78
2024-01-20T10:08:08.714Z,5.75
2024-01-20T10:10:35.389Z,4.72
2024-01-20T10:13:02.268Z,4.65
2024-01-20T10:15:34.041Z,5.00
2024-01-20T10:18:07.822Z,4.47
2024-01-20T10:20:37.125Z,4.63
2024-01-20T10:23:06.401Z,4.60
2024-01-20T10:25:33.169Z,4.60
2024-01-20T10:28:00.169Z,4.40
2024-01-20T10:30:27.303Z,4.45
2024-01-20T10:33:04.352Z,4.57
2024-01-20T10:35:36.102Z,4.80
2024-01-20T10:38:07.603Z,4.45
2024-01-20T10:40:39.932Z,4.40
2024-01-20T10:43:15.270Z,4.28
2024-01-20T10:46:10.014Z,3.90
2024-01-20T10:48:38.560Z,4.43
2024-01-20T10:51:14.177Z,5.60
2024-01-20T10:53:41.204Z,3.77
2024-01-20T10:56:08.734Z,4.97
2024-01-20T10:58:44.471Z,4.00
2024-01-20T11:01:12.814Z,3.78
2024-01-20T11:03:40.164Z,3.90
2024-01-20T11:06:06.878Z,3.80
2024-01-20T11:08:33.510Z,4.05
2024-01-20T11:11:00.937Z,4.47
2024-01-20T11:13:28.029Z,3.80
2024-01-20T11:15:56.077Z,3.80
2024-01-20T11:18:24.370Z,4.87
2024-01-20T11:20:57.604Z,4.35
2024-01-20T11:23:25.474Z,4.25
2024-01-20T11:25:52.168Z,4.05
2024-01-20T11:28:26.393Z,4.13
2024-01-20T11:30:53.189Z,4.10
2024-01-20T11:33:20.273Z,4.38
2024-01-20T11:35:46.877Z,3.97
2024-01-20T11:38:15.628Z,4.38
2024-01-20T11:40:42.201Z,6.78
2024-01-20T11:43:11.967Z,4.43
2024-01-20T11:45:41.951Z,5.78
2024-01-20T11:48:12.794Z,4.90
2024-01-20T11:50:41.788Z,4.97
2024-01-20T11:53:08.405Z,5.20
2024-01-20T11:55:34.934Z,5.43
2024-01-20T11:58:02.146Z,4.68
2024-01-20T12:00:28.850Z,4.35
2024-01-20T12:02:56.032Z,4.15
2024-01-20T12:05:22.801Z,4.70
2024-01-20T12:07:49.483Z,5.10
2024-01-20T12:10:17.319Z,5.03
2024-01-20T12:12:44.849Z,4.60
2024-01-20T12:15:11.715Z,5.50
2024-01-20T12:17:38.380Z,4.93
2024-01-20T12:20:06.179Z,5.63
2024-01-20T12:22:33.380Z,5.18
2024-01-20T12:25:00.443Z,4.82
2024-01-20T12:27:27.525Z,5.22
2024-01-20T12:29:54.256Z,5.38
2024-01-20T12:32:20.810Z,5.30
2024-01-20T12:34:47.449Z,5.25
2024-01-20T12:37:13.980Z,4.88
2024-01-20T12:39:40.558Z,4.32
2024-01-20T12:42:07.264Z,4.97
2024-01-20T12:44:33.796Z,5.10
2024-01-20T12:47:00.310Z,4.53
2024-01-20T12:49:27.113Z,5.22
2024-01-20T12:51:53.882Z,5.63
2024-01-20T12:54:20.533Z,5.68
2024-01-20T12:56:47.507Z,5.13
2024-01-20T12:59:14.105Z,5.63
2024-01-20T13:01:40.808Z,5.32
2024-01-20T13:04:07.400Z,5.10
2024-01-20T13:06:34.147Z,5.38
2024-01-20T13:09:00.869Z,5.57
2024-01-20T13:11:29.380Z,5.60
2024-01-20T13:13:57.348Z,4.63
2024-01-20T13:16:23.982Z,5.97
2024-01-20T13:18:53.258Z,5.65
2024-01-20T13:21:20.340Z,5.97
2024-01-20T13:23:47.690Z,6.25
2024-01-20T13:26:14.181Z,5.68
2024-01-20T13:28:40.684Z,4.82
2024-01-20T13:31:07.407Z,5.55
2024-01-20T13:33:34.056Z,5.53
2024-01-20T13:36:00.810Z,5.60
2024-01-20T13:38:27.433Z,5.65
2024-01-20T13:40:53.968Z,5.07
2024-01-20T13:43:20.474Z,5.18
2024-01-20T13:45:47.747Z,5.03
2024-01-20T13:48:14.503Z,4.80
2024-01-20T13:50:41.181Z,5.05
2024-01-20T13:53:08.253Z,5.22
2024-01-20T13:55:34.765Z,4.80
2024-01-20T13:58:01.312Z,6.40
2024-01-20T14:00:27.865Z,5.78
2024-01-20T14:02:54.489Z,4.80
2024-01-20T14:05:21.058Z,4.90
2024-01-20T14:07:47.592Z,5.75
2024-01-20T14:10:14.347Z,4.93
2024-01-20T14:12:40.927Z,5.30
2024-01-20T14:15:07.884Z,4.82
2024-01-20T14:17:34.599Z,4.45
2024-01-20T14:20:01.335Z,4.45
2024-01-20T14:22:28.014Z,5.03
2024-01-20T14:24:54.525Z,5.72
2024-01-20T14:27:21.105Z,5.05
2024-01-20T14:29:47.653Z,5.15
2024-01-20T14:32:14.179Z,4.97
2024-01-20T14:34:40.722Z,5.00
2024-01-20T14:37:08.691Z,4.28
2024-01-20T14:39:35.597Z,4.38
2024-01-20T14:42:02.887Z,4.55
2024-01-20T14:44:29.560Z,4.55
2024-01-20T14:46:56.072Z,5.00
2024-01-20T14:49:23.189Z,5.03
2024-01-20T14:51:49.820Z,4.90
2024-01-20T14:54:16.384Z,4.03
2024-01-20T14:56:42.874Z,5.30
2024-01-20T14:59:09.859Z,4.23
2024-01-20T15:01:37.647Z,4.65
2024-01-20T15:04:05.861Z,4.70
2024-01-20T15:06:32.981Z,4.28
2024-01-20T15:09:00.202Z,4.45
2024-01-20T15:11:27.159Z,4.23
2024-01-20T15:13:53.708Z,4.85
2024-01-20T15:16:20.288Z,4.60
2024-01-20T15:18:46.976Z,4.15
2024-01-20T15:21:13.612Z,4.50
2024-01-20T15:23:40.147Z,4.80
2024-01-20T15:26:06.614Z,5.00
2024-01-20T15:28:33.144Z,5.07
2024-01-20T15:30:59.696Z,4.97
2024-01-20T15:33:26.430Z,5.57
2024-01-20T15:35:53.046Z,5.23
2024-01-20T15:38:19.739Z,5.05
2024-01-20T15:40:46.399Z,4.90
2024-01-20T15:43:12.960Z,5.85
2024-01-20T15:45:39.553Z,4.30
2024-01-20T15:48:06.417Z,4.87
2024-01-20T15:50:33.575Z,5.35
2024-01-20T15:53:00.049Z,3.72
2024-01-20T15:55:26.547Z,4.88
2024-01-20T15:57:53.121Z,5.72
2024-01-20T16:00:19.842Z,4.67
2024-01-20T16:02:46.634Z,5.05
2024-01-20T16:05:13.343Z,4.72
2024-01-20T16:07:39.850Z,4.93
2024-01-20T16:10:07.044Z,4.63
2024-01-20T16:12:33.676Z,5.77
2024-01-20T16:15:00.718Z,5.18
2024-01-20T16:17:27.613Z,6.35
2024-01-20T16:19:54.202Z,5.25
2024-01-20T16:22:20.709Z,4.72
2024-01-20T16:24:47.774Z,5.40
2024-01-20T16:27:14.406Z,5.35
2024-01-20T16:29:40.953Z,4.45
2024-01-20T16:32:10.554Z,5.85
2024-01-20T16:34:37.226Z,4.88
2024-01-20T16:37:05.197Z,5.20
2024-01-20T16:39:32.009Z,5.18
2024-01-20T16:41:58.650Z,5.43
2024-01-20T16:44:26.903Z,5.57
2024-01-20T16:46:54.127Z,5.55
2024-01-20T16:49:21.495Z,8.23
2024-01-20T16:51:49.105Z,4.95
2024-01-20T16:54:15.937Z,4.88
2024-01-20T16:56:42.637Z,5.82
2024-01-20T16:59:09.976Z,5.85
2024-01-20T17:01:37.938Z,5.43
2024-01-20T17:04:04.857Z,4.75
2024-01-20T17:06:31.831Z,5.18
2024-01-20T17:08:58.448Z,5.55
2024-01-20T17:11:24.996Z,5.00
2024-01-20T17:13:54.831Z,4.47
2024-01-20T17:16:21.378Z,4.75
2024-01-20T17:21:18.509Z,5.13
2024-01-20T17:23:45.297Z,5.18
2024-01-20T17:26:12.071Z,5.53
2024-01-20T17:28:38.686Z,5.00
2024-01-20T17:31:05.846Z,5.57
2024-01-20T17:33:32.704Z,8.50
2024-01-20T17:35:59.376Z,6.65
2024-01-20T17:38:26.149Z,6.97
2024-01-20T17:40:52.732Z,14.07
2024-01-20T17:43:19.240Z,9.90
2024-01-20T17:45:49.838Z,8.75
2024-01-20T17:48:16.588Z,8.45
2024-01-20T17:50:43.257Z,7.43
2024-01-20T17:53:09.817Z,9.55
2024-01-20T17:55:36.398Z,8.63
2024-01-20T17:58:03.008Z,8.10
2024-01-20T18:00:29.898Z,7.97
2024-01-20T18:02:56.590Z,7.53
2024-01-20T18:05:23.601Z,7.35
2024-01-20T18:07:51.185Z,7.07
2024-01-20T18:10:21.011Z,12.68
2024-01-20T18:12:48.132Z,8.40
2024-01-20T18:15:15.112Z,8.07
2024-01-20T18:17:42.832Z,7.20
2024-01-20T18:20:09.498Z,7.28
2024-01-20T18:22:36.150Z,7.70
2024-01-20T18:25:02.809Z,7.55
2024-01-20T18:27:29.488Z,6.90
2024-01-20T18:29:57.059Z,6.82
2024-01-20T18:32:25.082Z,7.63
2024-01-20T18:34:51.873Z,7.88
2024-01-20T18:37:18.450Z,6.75
2024-01-20T18:39:45.166Z,7.00
2024-01-20T18:42:11.831Z,6.90
2024-01-20T18:44:38.502Z,6.20
2024-01-20T18:47:07.118Z,6.97
2024-01-20T18:49:34.022Z,6.82
2024-01-20T18:52:01.669Z,7.50
2024-01-20T18:54:28.440Z,7.43
2024-01-20T18:56:55.037Z,6.90
2024-01-20T18:59:21.537Z,6.93
2024-01-20T19:01:48.144Z,7.03
2024-01-20T19:04:14.685Z,6.90
2024-01-20T19:06:41.440Z,41.00
2024-01-20T19:09:08.115Z,15.18
2024-01-20T19:11:35.283Z,15.40
2024-01-20T19:14:01.874Z,14.93
2024-01-20T19:16:29.531Z,14.03
2024-01-20T19:18:56.341Z,14.10
2024-01-20T19:21:23.077Z,12.23
2024-01-20T19:23:49.762Z,12.50
2024-01-20T19:26:16.363Z,20.90
2024-01-20T19:28:42.996Z,13.70
2024-01-20T19:31:10.070Z,13.02
2024-01-20T19:33:37.373Z,12.25
2024-01-20T19:36:04.107Z,11.85
2024-01-20T19:38:30.646Z,12.45
2024-01-20T19:40:58.207Z,12.47
2024-01-20T19:43:24.694Z,12.25
2024-01-20T19:45:51.707Z,11.55
2024-01-20T19:48:18.574Z,14.07
2024-01-20T19:50:46.918Z,12.45
2024-01-20T19:53:13.446Z,14.10
2024-01-20T19:55:41.305Z,12.80
2024-01-20T19:58:08.257Z,13.25
2024-01-20T20:00:34.867Z,13.43
2024-01-20T20:03:01.576Z,12.50
2024-01-20T20:05:28.294Z,13.83
2024-01-20T20:07:54.861Z,11.73
2024-01-20T20:10:21.647Z,10.85
2024-01-20T20:12:48.614Z,11.40
2024-01-20T20:15:15.229Z,11.45
2024-01-20T20:17:41.804Z,10.97
2024-01-20T20:20:08.929Z,11.15
2024-01-20T20:22:35.445Z,10.73
2024-01-20T20:25:01.985Z,9.70
2024-01-20T20:27:28.603Z,10.32
2024-01-20T20:29:55.153Z,10.87
2024-01-20T20:32:22.595Z,9.93
2024-01-20T20:34:51.076Z,9.00
2024-01-20T20:37:19.893Z,9.25
2024-01-20T20:39:46.749Z,9.18
2024-01-20T20:42:13.466Z,9.33
2024-01-20T20:44:40.013Z,9.15
2024-01-20T20:47:06.627Z,8.63
2024-01-20T20:49:33.178Z,8.63
2024-01-20T20:51:59.813Z,8.40
2024-01-20T20:54:26.482Z,9.33
2024-01-20T20:56:53.122Z,8.65
2024-01-20T20:59:19.791Z,7.95
2024-01-20T21:01:46.314Z,8.45
2024-01-20T21:04:12.909Z,7.50
2024-01-20T21:06:40.361Z,7.53
2024-01-20T21:09:09.095Z,8.38
2024-01-20T21:11:35.729Z,7.93
2024-01-20T21:14:02.341Z,8.13
2024-01-20T21:16:29.478Z,7.53
2024-01-20T21:18:57.704Z,8.80
2024-01-20T21:21:24.845Z,7.30
2024-01-20T21:23:51.587Z,7.00
2024-01-20T21:26:24.312Z,9.82
2024-01-20T21:28:51.087Z,8.07
2024-01-20T21:31:17.681Z,8.57
2024-01-20T21:33:45.036Z,7.43
2024-01-20T21:36:12.366Z,6.65
2024-01-20T21:38:39.780Z,8.38
2024-01-20T21:41:06.991Z,7.88
2024-01-20T21:43:34.249Z,6.83
2024-01-20T21:46:00.777Z,8.27
2024-01-20T21:48:27.433Z,7.13
2024-01-20T21:50:55.774Z,7.70
2024-01-20T21:53:23.814Z,7.47
2024-01-20T21:55:50.314Z,7.53
2024-01-20T21:58:17.209Z,8.77
2024-01-20T22:00:43.935Z,8.13
2024-01-20T22:03:10.883Z,7.55
2024-01-20T22:05:38.791Z,7.63
2024-01-20T22:08:05.601Z,8.73
2024-01-20T22:10:33.369Z,8.25
2024-01-20T22:12:59.986Z,7.90
2024-01-20T22:15:26.633Z,8.73
2024-01-20T22:17:53.474Z,8.10
2024-01-20T22:20:20.127Z,8.23
2024-01-20T22:22:46.714Z,8.57
2024-01-20T22:25:14.335Z,6.93
2024-01-20T22:27:40.908Z,8.45
2024-01-20T22:30:10.429Z,7.38
2024-01-20T22:32:40.705Z,8.50
2024-01-20T22:35:07.683Z,8.73
2024-01-20T22:37:34.340Z,8.15
2024-01-20T22:40:03.221Z,6.82
2024-01-20T22:42:29.881Z,8.15
2024-01-20T22:44:56.486Z,7.10
2024-01-20T22:47:23.502Z,7.57
2024-01-20T22:49:50.772Z,7.85
2024-01-20T22:52:17.439Z,7.28
2024-01-20T22:54:45.170Z,6.57
2024-01-20T22:57:12.097Z,7.10
2024-01-20T22:59:38.676Z,7.00
2024-01-20T23:02:05.819Z,6.60
2024-01-20T23:04:32.622Z,6.70
2024-01-20T23:06:59.701Z,7.35
2024-01-20T23:09:27.516Z,7.07
2024-01-20T23:11:54.766Z,7.38
2024-01-20T23:14:22.084Z,7.55
2024-01-20T23:16:48.909Z,6.80
2024-01-20T23:19:15.481Z,6.63
2024-01-20T23:21:42.118Z,6.50
2024-01-20T23:24:08.698Z,6.20
2024-01-20T23:26:36.071Z,6.50
2024-01-20T23:29:02.606Z,6.32
2024-01-20T23:31:29.108Z,6.90
2024-01-20T23:33:55.729Z,6.93
2024-01-20T23:36:22.297Z,6.82
2024-01-20T23:38:48.869Z,6.10
2024-01-20T23:41:15.418Z,6.90
2024-01-20T23:43:42.937Z,6.32
2024-01-20T23:46:11.196Z,6.80
2024-01-20T23:48:37.748Z,6.47
2024-01-20T23:51:04.991Z,5.40
2024-01-20T23:53:31.718Z,6.75
2024-01-20T23:55:58.220Z,5.93
2024-01-20T23:58:25.046Z,5.63
